Time,TemperatureF,DewpointF,PressureIn,WindDirection,WindDirectionDegrees,WindSpeedMPH,WindSpeedGustMPH,Humidity,HourlyPrecipIn,Conditions,Clouds,dailyrainin,SoftwareType,DateUTC
2013-06-25 00:02:00,71.0,69.0,30.06,SSE,162,0.0,0.0,92,-99.99,,,-99.99,,2013-06-25 04:02:00,
2013-06-25 00:22:00,71.0,69.0,30.05,SSE,162,0.0,0.0,93,-99.99,,,-99.99,,2013-06-25 04:22:00,
2013-06-25 00:43:00,71.0,69.0,30.05,SE,129,0.0,0.0,92,-99.99,,,-99.99,,2013-06-25 04:43:00,
2013-06-25 00:52:00,71.0,69.0,30.05,SE,129,0.0,0.0,92,-99.99,,,-99.99,,2013-06-25 04:52:00,
2013-06-25 01:01:00,71.0,69.0,30.05,SE,129,0.0,0.0,92,-99.99,,,-99.99,,2013-06-25 05:01:00,
2013-06-25 01:11:00,71.0,69.0,30.05,SE,129,0.0,0.0,92,-99.99,,,-99.99,,2013-06-25 05:11:00,
2013-06-25 01:44:00,71.0,69.0,30.04,ENE,70,1.0,0.0,92,-99.99,,,-99.99,,2013-06-25 05:44:00,
2013-06-25 01:52:00,71.0,69.0,30.04,ENE,70,1.0,0.0,92,-99.99,,,-99.99,,2013-06-25 05:52:00,
2013-06-25 02:01:00,71.0,69.0,30.03,East,91,0.0,0.0,92,-99.99,,,-99.99,,2013-06-25 06:01:00,
2013-06-25 02:22:00,70.0,68.0,30.03,East,91,0.0,0.0,93,-99.99,,,-99.99,,2013-06-25 06:22:00,
2013-06-25 02:33:00,70.0,68.0,30.03,East,90,0.0,0.0,93,-99.99,,,-99.99,,2013-06-25 06:33:00,
2013-06-25 02:43:00,70.0,68.0,30.04,East,90,0.0,0.0,93,-99.99,,,-99.99,,2013-06-25 06:43:00,
2013-06-25 02:52:00,70.0,68.0,30.04,East,90,0.0,0.0,93,-99.99,,,-99.99,,2013-06-25 06:52:00,
2013-06-25 03:02:00,70.0,68.0,30.03,East,96,0.0,0.0,93,-99.99,,,-99.99,,2013-06-25 07:02:00,
2013-06-25 03:33:00,70.0,68.0,30.03,SE,134,0.0,0.0,92,-99.99,,,-99.99,,2013-06-25 07:33:00,
2013-06-25 03:52:00,70.0,68.0,30.02,SE,134,0.0,0.0,92,-99.99,,,-99.99,,2013-06-25 07:52:00,
2013-06-25 04:02:00,70.0,68.0,30.02,SE,134,0.0,0.0,93,-99.99,,,-99.99,,2013-06-25 08:02:00,
2013-06-25 04:11:00,70.0,68.0,30.02,SE,134,0.0,0.0,93,-99.99,,,-99.99,,2013-06-25 08:11:00,
2013-06-25 04:22:00,70.0,68.0,30.02,SE,134,0.0,0.0,93,-99.99,,,-99.99,,2013-06-25 08:22:00,
2013-06-25 04:53:00,69.0,67.0,30.02,ESE,113,0.0,0.0,93,-99.99,,,-99.99,,2013-06-25 08:53:00,
2013-06-25 05:02:00,69.0,67.0,30.02,ESE,113,0.0,0.0,93,-99.99,,,-99.99,,2013-06-25 09:02:00,
2013-06-25 05:12:00,69.0,67.0,30.02,ESE,113,0.0,0.0,93,-99.99,,,-99.99,,2013-06-25 09:12:00,
2013-06-25 05:22:00,69.0,67.0,30.02,ESE,113,0.0,0.0,93,-99.99,,,-99.99,,2013-06-25 09:22:00,
2013-06-25 05:33:00,69.0,67.0,30.02,ESE,113,0.0,0.0,93,-99.99,,,-99.99,,2013-06-25 09:33:00,
2013-06-25 05:43:00,69.0,67.0,30.02,ESE,113,0.0,0.0,93,-99.99,,,-99.99,,2013-06-25 09:43:00,
2013-06-25 06:01:00,69.0,67.0,30.02,East,87,0.0,0.0,93,-99.99,,,-99.99,,2013-06-25 10:01:00,
2013-06-25 06:11:00,69.0,67.0,30.01,East,97,0.0,0.0,93,-99.99,,,-99.99,,2013-06-25 10:11:00,
2013-06-25 06:21:00,68.0,66.0,30.02,East,98,1.0,0.0,93,-99.99,,,-99.99,,2013-06-25 10:21:00,
2013-06-25 06:33:00,68.0,66.0,30.02,East,98,0.0,0.0,94,-99.99,,,-99.99,,2013-06-25 10:33:00,
2013-06-25 06:42:00,68.0,66.0,30.03,East,94,0.0,0.0,94,-99.99,,,-99.99,,2013-06-25 10:42:00,
2013-06-25 06:52:00,68.0,66.0,30.03,East,94,0.0,0.0,94,-99.99,,,-99.99,,2013-06-25 10:52:00,
2013-06-25 07:02:00,68.0,66.0,30.03,SE,132,0.0,0.0,94,-99.99,,,-99.99,,2013-06-25 11:02:00,
2013-06-25 07:12:00,68.0,66.0,30.03,SE,132,0.0,0.0,94,-99.99,,,-99.99,,2013-06-25 11:12:00,
2013-06-25 07:22:00,68.0,66.0,30.03,SE,132,0.0,0.0,94,-99.99,,,-99.99,,2013-06-25 11:22:00,
2013-06-25 07:34:00,69.0,67.0,30.03,SE,138,0.0,0.0,93,-99.99,,,-99.99,,2013-06-25 11:34:00,
2013-06-25 07:43:00,69.0,67.0,30.04,SE,138,0.0,0.0,93,-99.99,,,-99.99,,2013-06-25 11:43:00,
2013-06-25 07:52:00,69.0,67.0,30.04,SE,138,0.0,0.0,93,-99.99,,,-99.99,,2013-06-25 11:52:00,
2013-06-25 08:22:00,71.0,68.0,30.04,SE,125,1.0,0.0,89,-99.99,,,-99.99,,2013-06-25 12:22:00,
2013-06-25 08:43:00,73.0,69.0,30.04,ESE,113,1.0,0.0,87,-99.99,,,-99.99,,2013-06-25 12:43:00,
2013-06-25 09:12:00,74.0,68.0,30.04,ENE,72,2.0,0.0,83,-99.99,,,-99.99,,2013-06-25 13:12:00,
2013-06-25 09:22:00,74.0,68.0,30.04,ENE,72,2.0,0.0,83,-99.99,,,-99.99,,2013-06-25 13:22:00,
2013-06-25 09:34:00,74.0,68.0,30.04,ENE,72,2.0,0.0,83,-99.99,,,-99.99,,2013-06-25 13:34:00,
2013-06-25 09:42:00,74.0,68.0,30.04,ENE,72,2.0,0.0,83,-99.99,,,-99.99,,2013-06-25 13:42:00,
2013-06-25 10:11:00,77.0,70.0,30.05,East,94,3.0,0.0,78,-99.99,,,-99.99,,2013-06-25 14:11:00,
2013-06-25 10:34:00,79.0,71.0,30.05,SSE,166,2.0,0.0,76,-99.99,,,-99.99,,2013-06-25 14:34:00,
2013-06-25 10:53:00,80.0,71.0,30.05,NE,46,1.0,0.0,74,-99.99,,,-99.99,,2013-06-25 14:53:00,
2013-06-25 11:02:00,80.0,71.0,30.05,NE,46,1.0,0.0,74,-99.99,,,-99.99,,2013-06-25 15:02:00,
2013-06-25 11:32:00,82.0,72.0,30.05,East,93,1.0,0.0,71,-99.99,,,-99.99,,2013-06-25 15:32:00,
2013-06-25 11:44:00,82.0,72.0,30.05,East,90,1.0,0.0,71,-99.99,,,-99.99,,2013-06-25 15:44:00,
2013-06-25 11:53:00,82.0,72.0,30.05,East,90,1.0,0.0,71,-99.99,,,-99.99,,2013-06-25 15:53:00,
2013-06-25 12:03:00,82.0,72.0,30.05,East,90,1.0,0.0,71,-99.99,,,-99.99,,2013-06-25 16:03:00,
2013-06-25 12:12:00,82.0,71.0,30.05,ESE,118,2.0,0.0,70,-99.99,,,-99.99,,2013-06-25 16:12:00,
2013-06-25 12:23:00,82.0,71.0,30.05,ESE,118,2.0,0.0,70,-99.99,,,-99.99,,2013-06-25 16:23:00,
2013-06-25 12:35:00,82.0,71.0,30.04,East,86,1.0,0.0,69,-99.99,,,-99.99,,2013-06-25 16:35:00,
2013-06-25 12:44:00,82.0,71.0,30.04,NNW,329,3.0,0.0,69,-99.99,,,-99.99,,2013-06-25 16:44:00,
2013-06-25 13:01:00,82.0,71.0,30.04,SSE,150,1.0,0.0,69,-99.99,,,-99.99,,2013-06-25 17:01:00,
2013-06-25 13:11:00,82.0,71.0,30.04,SSE,150,1.0,0.0,69,-99.99,,,-99.99,,2013-06-25 17:11:00,
2013-06-25 13:44:00,85.0,72.0,30.02,ESE,122,1.0,0.0,66,-99.99,,,-99.99,,2013-06-25 17:44:00,
2013-06-25 13:53:00,85.0,72.0,30.02,ESE,122,1.0,0.0,66,-99.99,,,-99.99,,2013-06-25 17:53:00,
2013-06-25 14:12:00,86.0,71.0,30.02,ESE,117,1.0,0.0,62,-99.99,,,-99.99,,2013-06-25 18:12:00,
2013-06-25 14:23:00,86.0,71.0,30.01,NNW,338,0.0,0.0,62,-99.99,,,-99.99,,2013-06-25 18:23:00,
2013-06-25 14:34:00,87.0,70.0,30.01,East,101,2.0,0.0,57,-99.99,,,-99.99,,2013-06-25 18:34:00,
2013-06-25 14:44:00,87.0,70.0,30.01,East,101,2.0,0.0,57,-99.99,,,-99.99,,2013-06-25 18:44:00,
2013-06-25 15:44:00,88.0,70.0,29.98,SE,127,0.0,0.0,56,-99.99,,,-99.99,,2013-06-25 19:44:00,
2013-06-25 15:53:00,88.0,70.0,29.98,SE,127,0.0,0.0,56,-99.99,,,-99.99,,2013-06-25 19:53:00,
2013-06-25 16:02:00,88.0,70.0,29.98,SE,127,0.0,0.0,56,-99.99,,,-99.99,,2013-06-25 20:02:00,
2013-06-25 16:11:00,88.0,70.0,29.98,SE,127,0.0,0.0,56,-99.99,,,-99.99,,2013-06-25 20:11:00,
2013-06-25 16:22:00,87.0,70.0,29.98,NW,318,2.0,0.0,57,-99.99,,,-99.99,,2013-06-25 20:22:00,
2013-06-25 16:33:00,87.0,71.0,29.97,North,356,1.0,0.0,60,-99.99,,,-99.99,,2013-06-25 20:33:00,
2013-06-25 16:42:00,86.0,71.0,29.97,NNW,327,1.0,0.0,61,-99.99,,,-99.99,,2013-06-25 20:42:00,
2013-06-25 17:01:00,86.0,72.0,29.96,NE,55,1.0,0.0,64,-99.99,,,-99.99,,2013-06-25 21:01:00,
2013-06-25 17:11:00,85.0,72.0,29.96,NNE,33,3.0,0.0,65,-99.99,,,-99.99,,2013-06-25 21:11:00,
2013-06-25 17:22:00,85.0,72.0,29.96,East,95,0.0,0.0,65,-99.99,,,-99.99,,2013-06-25 21:22:00,
2013-06-25 17:34:00,85.0,72.0,29.96,East,95,0.0,0.0,65,-99.99,,,-99.99,,2013-06-25 21:34:00,
2013-06-25 18:34:00,86.0,71.0,29.94,NNW,328,0.0,0.0,62,-99.99,,,-99.99,,2013-06-25 22:34:00,
2013-06-25 19:34:00,86.0,70.0,29.93,NW,316,0.0,0.0,60,-99.99,,,-99.99,,2013-06-25 23:34:00,
2013-06-25 19:44:00,86.0,70.0,29.93,NW,316,0.0,0.0,60,-99.99,,,-99.99,,2013-06-25 23:44:00,
2013-06-25 19:52:00,86.0,70.0,29.93,NW,316,0.0,0.0,60,-99.99,,,-99.99,,2013-06-25 23:52:00,
2013-06-25 20:02:00,84.0,71.0,29.92,NNW,332,0.0,0.0,65,-99.99,,,-99.99,,2013-06-26 00:02:00,
2013-06-25 20:22:00,82.0,71.0,29.93,East,87,1.0,0.0,69,-99.99,,,-99.99,,2013-06-26 00:22:00,
2013-06-25 20:33:00,82.0,71.0,29.93,East,87,1.0,0.0,69,-99.99,,,-99.99,,2013-06-26 00:33:00,
2013-06-25 20:42:00,82.0,71.0,29.93,East,87,1.0,0.0,69,-99.99,,,-99.99,,2013-06-26 00:42:00,
2013-06-25 20:53:00,82.0,71.0,29.93,East,87,1.0,0.0,69,-99.99,,,-99.99,,2013-06-26 00:53:00,
2013-06-25 21:01:00,79.0,68.0,29.94,East,94,0.0,0.0,69,-99.99,,,-99.99,,2013-06-26 01:01:00,
2013-06-25 21:11:00,79.0,68.0,29.94,East,94,0.0,0.0,69,-99.99,,,-99.99,,2013-06-26 01:11:00,
2013-06-25 21:22:00,79.0,68.0,29.94,East,94,0.0,0.0,69,-99.99,,,-99.99,,2013-06-26 01:22:00,
2013-06-25 21:33:00,78.0,68.0,29.95,East,84,2.0,0.0,72,-99.99,,,-99.99,,2013-06-26 01:33:00,
2013-06-25 21:43:00,78.0,68.0,29.95,East,84,2.0,0.0,72,-99.99,,,-99.99,,2013-06-26 01:43:00,
2013-06-25 22:02:00,77.0,68.0,29.95,ENE,68,0.0,0.0,73,-99.99,,,-99.99,,2013-06-26 02:02:00,
2013-06-25 22:11:00,76.0,67.0,29.96,NNW,333,1.0,0.0,73,-99.99,,,-99.99,,2013-06-26 02:11:00,
2013-06-25 22:22:00,76.0,67.0,29.96,NNW,333,1.0,0.0,73,-99.99,,,-99.99,,2013-06-26 02:22:00,
2013-06-25 22:34:00,75.0,67.0,29.97,ESE,119,0.0,0.0,75,-99.99,,,-99.99,,2013-06-26 02:34:00,
2013-06-25 22:43:00,75.0,67.0,29.97,NE,34,0.0,0.0,76,-99.99,,,-99.99,,2013-06-26 02:43:00,
2013-06-25 23:02:00,75.0,67.0,29.97,NE,34,1.0,0.0,76,-99.99,,,-99.99,,2013-06-26 03:02:00,
2013-06-25 23:11:00,75.0,67.0,29.97,NE,34,1.0,0.0,76,-99.99,,,-99.99,,2013-06-26 03:11:00,
2013-06-25 23:22:00,75.0,67.0,29.97,NE,34,1.0,0.0,76,-99.99,,,-99.99,,2013-06-26 03:22:00,
2013-06-25 23:33:00,75.0,67.0,29.97,NE,34,1.0,0.0,76,-99.99,,,-99.99,,2013-06-26 03:33:00,
2013-06-25 23:43:00,73.0,66.0,29.96,ESE,113,1.0,0.0,80,-99.99,,,-99.99,,2013-06-26 03:43:00,
2013-06-25 23:52:00,73.0,66.0,29.96,ESE,113,1.0,0.0,80,-99.99,,,-99.99,,2013-06-26 03:52:00,